createdAt,value
2018-04-09T00:00:25.357Z,59.42
2018-04-09T00:01:25.338Z,59.52
2018-04-09T00:02:25.354Z,59.33
2018-04-09T00:03:25.986Z,59.42
2018-04-09T00:04:25.353Z,59.23
2018-04-09T00:05:25.362Z,59.33
2018-04-09T00:06:26.021Z,58.75
2018-04-09T00:07:25.312Z,59.39
2018-04-09T00:08:25.319Z,59.58
2018-04-09T00:09:25.273Z,59.97
2018-04-09T00:10:25.410Z,59.77
2018-04-09T00:11:25.977Z,59.87
2018-04-09T00:12:25.241Z,59.77
2018-04-09T00:13:25.254Z,59.77
2018-04-09T00:14:25.231Z,60.16
2018-04-09T00:15:25.282Z,59.87
2018-04-09T00:16:25.308Z,59.97
2018-04-09T00:17:25.239Z,59.87
2018-04-09T00:18:25.268Z,60.35
2018-04-09T00:19:25.237Z,60.06
2018-04-09T00:20:25.276Z,60.06
2018-04-09T00:21:25.188Z,60.44
2018-04-09T00:22:25.202Z,59.87
2018-04-09T00:23:25.166Z,59.87
2018-04-09T00:24:25.228Z,59.77
2018-04-09T00:25:25.154Z,59.97
2018-04-09T00:26:25.174Z,60.16
2018-04-09T00:27:25.198Z,59.97
2018-04-09T00:28:25.116Z,59.68
2018-04-09T00:29:25.116Z,59.68
2018-04-09T00:30:25.120Z,59.77
2018-04-09T00:31:25.147Z,60.06
2018-04-09T00:32:25.112Z,60.73
2018-04-09T00:33:25.088Z,60.73
2018-04-09T00:34:25.152Z,60.35
2018-04-09T00:35:25.098Z,60.16
2018-04-09T00:36:25.069Z,60.16
2018-04-09T00:37:25.082Z,60.25
2018-04-09T00:38:25.055Z,59.97
2018-04-09T00:39:25.046Z,59.97
2018-04-09T00:40:25.136Z,59.97
2018-04-09T00:41:25.017Z,59.68
2018-04-09T00:42:25.009Z,59.97
2018-04-09T00:43:25.027Z,59.97
2018-04-09T00:44:25.067Z,59.97
2018-04-09T00:45:25.063Z,59.77
2018-04-09T00:46:24.964Z,60.35
2018-04-09T00:47:24.975Z,60.44
2018-04-09T00:48:24.994Z,60.25
2018-04-09T00:49:24.989Z,60.16
2018-04-09T00:50:24.966Z,60.16
2018-04-09T00:51:25.057Z,59.97
2018-04-09T00:52:24.978Z,60.35
2018-04-09T00:53:24.954Z,59.97
2018-04-09T00:54:25.036Z,60.64
2018-04-09T00:55:24.934Z,60.64
2018-04-09T00:56:24.948Z,60.54
2018-04-09T00:57:24.943Z,60.54
2018-04-09T00:58:24.893Z,60.61
2018-04-09T00:59:24.879Z,60.41
2018-04-09T01:00:24.943Z,60.22
2018-04-09T01:01:24.874Z,60.25
2018-04-09T01:02:24.867Z,60.32
2018-04-09T01:03:24.928Z,60.41
2018-04-09T01:04:24.839Z,60.22
2018-04-09T01:05:24.843Z,60.13
2018-04-09T01:06:24.851Z,60.51
2018-04-09T01:07:24.841Z,60.99
2018-04-09T01:08:24.804Z,60.99
2018-04-09T01:09:25.082Z,60.80
2018-04-09T01:10:24.798Z,60.89
2018-04-09T01:11:24.780Z,60.51
2018-04-09T01:12:24.754Z,60.13
2018-04-09T01:13:24.788Z,60.32
2018-04-09T01:14:25.058Z,60.32
2018-04-09T01:15:24.745Z,60.32
2018-04-09T01:16:24.840Z,60.61
2018-04-09T01:17:24.782Z,60.89
2018-04-09T01:18:24.712Z,60.80
2018-04-09T01:19:24.757Z,60.80
2018-04-09T01:20:24.712Z,60.89
2018-04-09T01:21:25.573Z,61.08
2018-04-09T01:22:24.755Z,61.18
2018-04-09T01:23:24.708Z,61.08
2018-04-09T01:24:25.071Z,61.57
2018-04-09T01:25:24.661Z,61.18
2018-04-09T01:26:24.726Z,61.37
2018-04-09T01:27:24.658Z,61.28
2018-04-09T01:28:24.668Z,60.99
2018-04-09T01:29:24.710Z,61.57
2018-04-09T01:30:24.679Z,61.47
2018-04-09T01:31:24.663Z,61.66
2018-04-09T01:32:24.721Z,61.76
2018-04-09T01:33:24.569Z,61.54
2018-04-09T01:34:24.590Z,61.57
2018-04-09T01:35:24.614Z,61.76
2018-04-09T01:36:25.529Z,61.76
2018-04-09T01:37:24.588Z,61.76
2018-04-09T01:38:24.604Z,62.01
2018-04-09T01:39:24.664Z,61.66
2018-04-09T01:40:24.548Z,62.04
2018-04-09T01:41:24.509Z,62.23
2018-04-09T01:42:24.526Z,62.43
2018-04-09T01:43:25.068Z,62.14
2018-04-09T01:44:24.525Z,62.04
2018-04-09T01:45:24.518Z,61.76
2018-04-09T01:46:24.457Z,61.54
2018-04-09T01:47:24.509Z,61.47
2018-04-09T01:48:24.473Z,61.94
2018-04-09T01:49:24.455Z,62.04
2018-04-09T01:50:24.472Z,61.94
2018-04-09T01:51:24.506Z,62.04
2018-04-09T01:52:24.419Z,61.94
2018-04-09T01:53:24.416Z,62.23
2018-04-09T01:54:24.409Z,61.91
2018-04-09T01:55:24.423Z,61.66
2018-04-09T01:56:24.417Z,61.82
2018-04-09T01:57:24.410Z,61.44
2018-04-09T01:58:24.411Z,61.63
2018-04-09T01:59:24.353Z,61.72
2018-04-09T02:00:24.381Z,61.72
2018-04-09T02:01:24.389Z,61.91
2018-04-09T02:02:24.385Z,61.44
2018-04-09T02:03:24.369Z,61.63
2018-04-09T02:04:24.388Z,61.44
2018-04-09T02:05:24.298Z,61.63
2018-04-09T02:06:24.308Z,61.44
2018-04-09T02:07:26.008Z,61.44
2018-04-09T02:08:24.479Z,61.63
2018-04-09T02:09:24.294Z,61.82
2018-04-09T02:10:25.030Z,61.54
2018-04-09T02:11:24.344Z,61.54
2018-04-09T02:12:24.285Z,62.01
2018-04-09T02:13:24.323Z,62.01
2018-04-09T02:14:24.233Z,62.01
2018-04-09T02:15:24.216Z,61.63
2018-04-09T02:16:24.222Z,61.91
2018-04-09T02:17:24.237Z,62.37
2018-04-09T02:18:24.231Z,62.30
2018-04-09T02:19:24.201Z,62.87
2018-04-09T02:20:24.218Z,62.30
2018-04-09T02:21:24.261Z,61.98
2018-04-09T02:22:24.182Z,62.27
2018-04-09T02:23:24.169Z,62.77
2018-04-09T02:24:24.199Z,62.27
2018-04-09T02:25:24.156Z,63.03
2018-04-09T02:26:24.179Z,62.84
2018-04-09T02:27:24.198Z,62.17
2018-04-09T02:28:27.011Z,62.30
2018-04-09T02:29:24.079Z,62.55
2018-04-09T02:30:24.101Z,62.84
2018-04-09T02:31:24.060Z,62.74
2018-04-09T02:32:24.122Z,62.55
2018-04-09T02:33:24.062Z,62.55
2018-04-09T02:34:24.045Z,63.32
2018-04-09T02:35:25.034Z,62.74
2018-04-09T02:36:24.030Z,63.51
2018-04-09T02:37:24.053Z,63.60
2018-04-09T02:38:24.098Z,63.60
2018-04-09T02:39:23.982Z,63.80
2018-04-09T02:40:24.012Z,63.89
2018-04-09T02:41:24.058Z,63.89
2018-04-09T02:42:24.537Z,63.80
2018-04-09T02:43:24.036Z,63.80
2018-04-09T02:44:24.578Z,63.89
2018-04-09T02:45:23.992Z,63.51
2018-04-09T02:46:23.935Z,63.51
2018-04-09T02:47:23.932Z,63.70
2018-04-09T02:48:23.916Z,63.89
2018-04-09T02:49:24.082Z,63.99
2018-04-09T02:50:23.954Z,63.89
2018-04-09T02:51:24.560Z,63.42
2018-04-09T02:52:23.926Z,63.23
2018-04-09T02:53:23.901Z,63.23
2018-04-09T02:54:23.887Z,62.55
2018-04-09T02:55:24.021Z,62.84
2018-04-09T02:56:23.857Z,62.74
2018-04-09T02:57:23.861Z,62.74
2018-04-09T02:58:23.840Z,62.84
2018-04-09T02:59:24.534Z,62.94
2018-04-09T03:00:23.788Z,63.60
2018-04-09T03:01:25.568Z,63.60
2018-04-09T03:02:23.794Z,63.99
2018-04-09T03:03:24.538Z,63.76
2018-04-09T03:04:23.768Z,63.96
2018-04-09T03:05:23.781Z,63.86
2018-04-09T03:06:25.570Z,64.15
2018-04-09T03:07:25.908Z,64.25
2018-04-09T03:08:23.707Z,64.43
2018-04-09T03:09:23.778Z,64.72
2018-04-09T03:10:23.713Z,64.62
2018-04-09T03:11:23.750Z,64.91
2018-04-09T03:12:23.753Z,64.62
2018-04-09T03:13:24.447Z,64.72
2018-04-09T03:14:23.693Z,64.62
2018-04-09T03:15:23.692Z,64.53
2018-04-09T03:16:23.663Z,64.43
2018-04-09T03:17:24.543Z,64.43
2018-04-09T03:18:23.759Z,64.72
2018-04-09T03:19:23.624Z,64.72
2018-04-09T03:20:23.640Z,64.34
2018-04-09T03:21:24.569Z,64.43
2018-04-09T03:22:23.597Z,65.11
2018-04-09T03:23:25.592Z,64.72
2018-04-09T03:24:23.577Z,65.26
2018-04-09T03:25:23.553Z,65.74
2018-04-09T03:26:25.557Z,65.93
2018-04-09T03:27:24.062Z,65.45
2018-04-09T03:28:23.526Z,65.93
2018-04-09T03:29:23.573Z,66.41
2018-04-09T03:30:23.597Z,66.13
2018-04-09T03:31:23.546Z,66.41
2018-04-09T03:32:25.053Z,66.03
2018-04-09T03:33:24.072Z,66.03
2018-04-09T03:34:23.584Z,66.22
2018-04-09T03:35:23.579Z,66.22
2018-04-09T03:36:23.520Z,66.22
2018-04-09T03:37:23.449Z,65.84
2018-04-09T03:38:24.211Z,66.41
2018-04-09T03:39:23.431Z,66.60
2018-04-09T03:40:23.495Z,66.60
2018-04-09T03:41:23.418Z,66.22
2018-04-09T03:42:23.486Z,66.31
2018-04-09T03:43:24.105Z,66.31
2018-04-09T03:44:23.404Z,66.31
2018-04-09T03:45:23.400Z,65.64
2018-04-09T03:46:23.363Z,66.22
2018-04-09T03:47:23.370Z,66.03
2018-04-09T03:48:23.333Z,66.31
2018-04-09T03:49:23.453Z,66.31
2018-04-09T03:50:23.375Z,66.31
2018-04-09T03:51:23.367Z,66.13
2018-04-09T03:52:23.301Z,66.31
2018-04-09T03:53:23.307Z,66.22
2018-04-09T03:54:23.342Z,66.31
2018-04-09T03:55:23.312Z,65.90
2018-04-09T03:56:23.323Z,66.38
2018-04-09T03:57:23.247Z,66.47
2018-04-09T03:58:23.294Z,66.56
2018-04-09T03:59:23.248Z,66.56
2018-04-09T04:00:23.331Z,66.56
2018-04-09T04:01:23.246Z,66.76
2018-04-09T04:02:23.222Z,67.33
2018-04-09T04:03:23.279Z,66.95
2018-04-09T04:04:23.181Z,66.95
2018-04-09T04:05:23.271Z,66.85
2018-04-09T04:06:23.195Z,66.47
2018-04-09T04:07:23.173Z,66.47
2018-04-09T04:08:23.130Z,66.95
2018-04-09T04:09:23.572Z,67.14
2018-04-09T04:10:23.175Z,67.24
2018-04-09T04:11:26.070Z,66.95
2018-04-09T04:12:24.117Z,66.85
2018-04-09T04:13:23.085Z,67.81
2018-04-09T04:14:23.091Z,67.52
2018-04-09T04:15:23.106Z,67.52
2018-04-09T04:16:23.049Z,67.14
2018-04-09T04:17:23.052Z,67.52
2018-04-09T04:18:23.070Z,67.71
2018-04-09T04:19:23.038Z,67.71
2018-04-09T04:20:23.062Z,67.24
2018-04-09T04:21:23.012Z,67.52
2018-04-09T04:22:24.664Z,66.85
2018-04-09T04:23:23.089Z,66.66
2018-04-09T04:24:22.984Z,67.14
2018-04-09T04:25:23.615Z,66.47
2018-04-09T04:26:22.949Z,66.47
2018-04-09T04:27:22.929Z,66.38
2018-04-09T04:28:22.932Z,66.66
2018-04-09T04:29:22.930Z,66.28
2018-04-09T04:30:22.959Z,66.38
2018-04-09T04:31:22.897Z,66.09
2018-04-09T04:32:22.932Z,66.66
2018-04-09T04:33:23.557Z,66.76
2018-04-09T04:34:22.861Z,66.56
2018-04-09T04:35:22.821Z,66.76
2018-04-09T04:36:22.818Z,66.47
2018-04-09T04:37:22.817Z,66.28
2018-04-09T04:38:22.810Z,66.47
2018-04-09T04:39:22.829Z,66.56
2018-04-09T04:40:22.773Z,66.47
2018-04-09T04:41:22.789Z,66.76
2018-04-09T04:42:22.772Z,66.66
2018-04-09T04:43:22.806Z,66.09
2018-04-09T04:44:22.729Z,66.47
2018-04-09T04:45:22.830Z,66.47
2018-04-09T04:46:22.716Z,66.28
2018-04-09T04:47:22.714Z,66.31
2018-04-09T04:48:22.692Z,66.13
2018-04-09T04:49:22.681Z,66.22
2018-04-09T04:50:22.740Z,65.84
2018-04-09T04:51:22.665Z,66.13
2018-04-09T04:52:22.651Z,66.31
2018-04-09T04:53:22.655Z,66.31
2018-04-09T04:54:22.651Z,66.22
2018-04-09T04:55:22.623Z,66.41
2018-04-09T04:56:22.625Z,66.09
2018-04-09T04:57:22.609Z,66.13
2018-04-09T04:58:22.586Z,66.22
2018-04-09T04:59:22.589Z,66.31
2018-04-09T05:00:22.601Z,66.19
2018-04-09T05:01:22.562Z,65.84
2018-04-09T05:02:22.541Z,66.09
2018-04-09T05:03:22.574Z,66.66
2018-04-09T05:04:22.559Z,66.38
2018-04-09T05:05:22.562Z,66.28
2018-04-09T05:06:22.515Z,66.56
2018-04-09T05:07:22.496Z,66.66
2018-04-09T05:08:22.489Z,66.38
2018-04-09T05:09:22.484Z,66.56
2018-04-09T05:10:22.483Z,66.60
2018-04-09T05:11:22.448Z,66.50
2018-04-09T05:12:22.441Z,66.38
2018-04-09T05:13:22.445Z,66.38
2018-04-09T05:14:22.430Z,66.41
2018-04-09T05:15:22.460Z,66.38
2018-04-09T05:16:22.421Z,66.47
2018-04-09T05:17:22.400Z,66.28
2018-04-09T05:18:22.391Z,66.47
2018-04-09T05:19:22.363Z,66.70
2018-04-09T05:20:22.363Z,66.60
2018-04-09T05:21:22.340Z,66.70
2018-04-09T05:22:22.353Z,66.50
2018-04-09T05:23:22.417Z,66.66
2018-04-09T05:24:22.319Z,66.19
2018-04-09T05:25:22.316Z,67.14
2018-04-09T05:26:22.489Z,66.99
2018-04-09T05:27:22.283Z,67.18
2018-04-09T05:28:22.278Z,66.56
2018-04-09T05:29:22.609Z,66.38
2018-04-09T05:30:22.268Z,66.31
2018-04-09T05:31:22.260Z,66.60
2018-04-09T05:32:22.241Z,66.60
2018-04-09T05:33:22.233Z,66.60
2018-04-09T05:34:22.237Z,66.50
2018-04-09T05:35:22.220Z,66.70
2018-04-09T05:36:22.202Z,66.70
2018-04-09T05:37:22.210Z,66.70
2018-04-09T05:38:22.187Z,66.50
2018-04-09T05:39:22.182Z,66.13
2018-04-09T05:40:22.163Z,66.41
2018-04-09T05:41:22.147Z,66.41
2018-04-09T05:42:22.143Z,66.22
2018-04-09T05:43:22.131Z,66.22
2018-04-09T05:44:22.114Z,66.50
2018-04-09T05:45:22.119Z,66.31
2018-04-09T05:46:22.086Z,66.50
2018-04-09T05:47:22.078Z,66.22
2018-04-09T05:48:22.065Z,66.06
2018-04-09T05:49:22.075Z,66.06
2018-04-09T05:50:22.108Z,66.35
2018-04-09T05:51:22.040Z,65.77
2018-04-09T05:52:22.026Z,66.44
2018-04-09T05:53:22.025Z,66.25
2018-04-09T05:54:22.021Z,66.35
2018-04-09T05:55:22.031Z,66.35
2018-04-09T05:56:22.133Z,66.54
2018-04-09T05:57:21.999Z,66.35
2018-04-09T05:58:21.966Z,66.35
2018-04-09T05:59:22.016Z,66.44
2018-04-09T06:00:21.971Z,66.54
2018-04-09T06:01:21.971Z,66.25
2018-04-09T06:02:22.014Z,66.92
2018-04-09T06:03:21.921Z,66.83
2018-04-09T06:04:21.940Z,66.63
2018-04-09T06:05:21.914Z,66.63
2018-04-09T06:06:21.902Z,66.44
2018-04-09T06:07:21.906Z,67.11
2018-04-09T06:08:21.911Z,67.21
2018-04-09T06:09:21.884Z,67.21
2018-04-09T06:10:21.864Z,67.11
2018-04-09T06:11:21.861Z,67.59
2018-04-09T06:12:21.826Z,67.88
2018-04-09T06:13:21.865Z,67.88
2018-04-09T06:14:21.870Z,67.88
2018-04-09T06:15:21.824Z,68.26
2018-04-09T06:16:21.809Z,68.26
2018-04-09T06:17:21.800Z,68.64
2018-04-09T06:18:21.786Z,69.06
2018-04-09T06:19:21.790Z,68.77
2018-04-09T06:20:21.761Z,68.74
2018-04-09T06:21:21.834Z,69.21
2018-04-09T06:22:21.748Z,69.50
2018-04-09T06:23:21.772Z,69.31
2018-04-09T06:24:21.719Z,69.25
2018-04-09T06:25:21.738Z,69.89
2018-04-09T06:26:21.777Z,70.36
2018-04-09T06:27:21.706Z,70.75
2018-04-09T06:28:21.704Z,71.70
2018-04-09T06:29:21.700Z,71.99
2018-04-09T06:30:21.665Z,71.99
2018-04-09T06:31:21.673Z,72.28
2018-04-09T06:32:21.665Z,71.61
2018-04-09T06:33:21.654Z,71.70
2018-04-09T06:34:21.663Z,71.26
2018-04-09T06:35:21.621Z,71.07
2018-04-09T06:36:21.617Z,70.78
2018-04-09T06:37:21.630Z,70.87
2018-04-09T06:38:21.604Z,70.30
2018-04-09T06:39:21.607Z,69.82
2018-04-09T06:40:21.617Z,70.21
2018-04-09T06:41:21.563Z,70.50
2018-04-09T06:42:21.602Z,69.82
2018-04-09T06:43:21.567Z,69.54
2018-04-09T06:44:21.537Z,70.34
2018-04-09T06:45:21.531Z,70.87
2018-04-09T06:46:21.523Z,71.64
2018-04-09T06:47:21.654Z,72.16
2018-04-09T06:48:21.529Z,72.02
2018-04-09T06:49:21.513Z,71.93
2018-04-09T06:50:21.502Z,71.36
2018-04-09T06:51:21.478Z,71.26
2018-04-09T06:52:21.492Z,70.59
2018-04-09T06:53:21.498Z,70.78
2018-04-09T06:54:21.492Z,72.31
2018-04-09T06:55:21.463Z,71.93
2018-04-09T06:56:21.435Z,70.78
2018-04-09T06:57:21.433Z,70.68
2018-04-09T06:58:21.461Z,70.01
2018-04-09T06:59:21.454Z,70.21
2018-04-09T07:00:21.415Z,69.82
2018-04-09T07:01:21.398Z,69.54
2018-04-09T07:02:21.387Z,68.96
2018-04-09T07:03:21.407Z,68.96
2018-04-09T07:04:21.381Z,69.15
2018-04-09T07:05:21.355Z,68.20
2018-04-09T07:06:21.348Z,68.49
2018-04-09T07:07:21.339Z,69.06
2018-04-09T07:08:21.350Z,68.68
2018-04-09T07:09:21.348Z,68.77
2018-04-09T07:10:21.309Z,68.20
2018-04-09T07:11:21.298Z,68.29
2018-04-09T07:12:21.345Z,68.01
2018-04-09T07:13:21.307Z,67.82
2018-04-09T07:14:21.275Z,67.05
2018-04-09T07:15:21.312Z,66.96
2018-04-09T07:16:21.279Z,66.38
2018-04-09T07:17:21.250Z,66.28
2018-04-09T07:18:21.236Z,66.32
2018-04-09T07:19:21.252Z,66.32
2018-04-09T07:20:21.276Z,66.41
2018-04-09T07:21:21.230Z,65.94
2018-04-09T07:22:21.203Z,66.32
2018-04-09T07:23:21.203Z,66.22
2018-04-09T07:24:21.203Z,66.32
2018-04-09T07:25:21.218Z,66.32
2018-04-09T07:26:21.186Z,66.32
2018-04-09T07:27:21.168Z,66.22
2018-04-09T07:28:21.151Z,66.51
2018-04-09T07:29:21.165Z,66.51
2018-04-09T07:30:21.157Z,66.22
2018-04-09T07:31:21.134Z,66.13
2018-04-09T07:32:21.159Z,66.32
2018-04-09T07:33:21.134Z,65.94
2018-04-09T07:34:21.141Z,66.06
2018-04-09T07:35:21.125Z,66.06
2018-04-09T07:36:21.097Z,65.88
2018-04-09T07:37:21.101Z,66.25
2018-04-09T07:38:21.075Z,66.64
2018-04-09T07:39:21.067Z,66.45
2018-04-09T07:40:21.065Z,66.45
2018-04-09T07:41:21.066Z,66.25
2018-04-09T07:42:21.045Z,66.54
2018-04-09T07:43:21.037Z,66.54
2018-04-09T07:44:21.086Z,66.74
2018-04-09T07:45:21.025Z,66.77
2018-04-09T07:46:21.013Z,67.72
2018-04-09T07:47:20.999Z,67.11
2018-04-09T07:48:20.994Z,67.34
2018-04-09T07:49:21.047Z,67.91
2018-04-09T07:50:20.985Z,66.64
2018-04-09T07:51:20.966Z,66.74
2018-04-09T07:52:20.970Z,67.15
2018-04-09T07:53:20.973Z,67.44
2018-04-09T07:54:20.943Z,67.63
2018-04-09T07:55:21.012Z,68.21
2018-04-09T07:56:20.931Z,67.54
2018-04-09T07:57:20.943Z,67.15
2018-04-09T07:58:20.939Z,67.34
2018-04-09T07:59:20.902Z,66.58
2018-04-09T08:00:20.895Z,67.15
2018-04-09T08:01:20.913Z,66.58
2018-04-09T08:02:20.898Z,65.81
2018-04-09T08:03:20.869Z,65.14
2018-04-09T08:04:20.881Z,65.05
2018-04-09T08:05:20.859Z,64.69
2018-04-09T08:06:20.930Z,64.50
2018-04-09T08:07:20.863Z,64.50
2018-04-09T08:08:20.844Z,64.50
2018-04-09T08:09:20.848Z,64.53
2018-04-09T08:10:20.842Z,64.72
2018-04-09T08:11:20.811Z,65.30
2018-04-09T08:12:20.841Z,63.96
2018-04-09T08:13:20.873Z,62.81
2018-04-09T08:14:20.816Z,62.23
2018-04-09T08:15:20.789Z,61.66
2018-04-09T08:16:20.803Z,61.66
2018-04-09T08:17:20.779Z,62.62
2018-04-09T08:18:20.775Z,62.45
2018-04-09T08:19:20.803Z,61.78
2018-04-09T08:20:20.760Z,60.82
2018-04-09T08:21:20.762Z,61.02
2018-04-09T08:22:20.740Z,60.92
2018-04-09T08:23:20.744Z,61.49
2018-04-09T08:24:20.766Z,61.11
2018-04-09T08:25:20.725Z,60.53
2018-04-09T08:26:20.760Z,59.86
2018-04-09T08:27:20.712Z,60.05
2018-04-09T08:28:20.719Z,59.77
2018-04-09T08:29:20.688Z,60.05
2018-04-09T08:30:20.689Z,60.72
2018-04-09T08:31:21.062Z,59.67
2018-04-09T08:32:20.698Z,60.05
2018-04-09T08:33:20.698Z,60.05
2018-04-09T08:34:20.673Z,59.67
2018-04-09T08:35:20.661Z,60.03
2018-04-09T08:36:20.644Z,60.70
2018-04-09T08:37:20.711Z,60.72
2018-04-09T08:38:20.641Z,60.53
2018-04-09T08:39:20.638Z,60.22
2018-04-09T08:40:20.630Z,61.46
2018-04-09T08:41:20.618Z,61.37
2018-04-09T08:42:20.621Z,61.21
2018-04-09T08:43:20.629Z,61.30
2018-04-09T08:44:20.600Z,61.30
2018-04-09T08:45:20.618Z,62.16
2018-04-09T08:46:20.601Z,62.45
2018-04-09T08:47:20.586Z,61.69
2018-04-09T08:48:20.661Z,61.78
2018-04-09T08:49:20.585Z,61.59
2018-04-09T08:50:20.576Z,62.07
2018-04-09T08:51:20.592Z,61.59
2018-04-09T08:52:20.582Z,61.98
2018-04-09T08:53:20.573Z,61.69
2018-04-09T08:54:20.543Z,61.78
2018-04-09T08:55:20.542Z,61.88
2018-04-09T08:56:20.563Z,61.78
2018-04-09T08:57:20.534Z,61.69
2018-04-09T08:58:20.554Z,61.98
2018-04-09T08:59:20.544Z,62.36
2018-04-09T09:00:20.512Z,62.55
2018-04-09T09:01:20.507Z,62.45
2018-04-09T09:02:20.527Z,62.74
2018-04-09T09:03:20.550Z,63.32
2018-04-09T09:04:20.494Z,63.22
2018-04-09T09:05:21.161Z,63.03
2018-04-09T09:06:20.494Z,64.18
2018-04-09T09:07:20.480Z,64.09
2018-04-09T09:08:20.478Z,63.42
2018-04-09T09:09:20.463Z,62.77
2018-04-09T09:10:20.491Z,63.03
2018-04-09T09:11:20.480Z,62.74
2018-04-09T09:12:20.468Z,62.84
2018-04-09T09:13:20.457Z,63.03
2018-04-09T09:14:20.438Z,63.32
2018-04-09T09:15:20.502Z,63.06
2018-04-09T09:16:20.436Z,63.03
2018-04-09T09:17:20.443Z,62.93
2018-04-09T09:18:20.447Z,63.42
2018-04-09T09:19:20.415Z,63.03
2018-04-09T09:20:20.405Z,63.22
2018-04-09T09:21:22.152Z,63.25
2018-04-09T09:22:20.422Z,63.83
2018-04-09T09:23:20.393Z,63.54
2018-04-09T09:24:20.418Z,62.65
2018-04-09T09:25:20.697Z,63.35
2018-04-09T09:26:20.406Z,63.25
2018-04-09T09:27:20.381Z,63.35
2018-04-09T09:28:20.372Z,63.06
2018-04-09T09:29:20.376Z,62.77
2018-04-09T09:30:20.365Z,63.03
2018-04-09T09:31:20.392Z,64.02
2018-04-09T09:32:20.348Z,63.45
2018-04-09T09:33:20.366Z,63.73
2018-04-09T09:34:20.352Z,63.09
2018-04-09T09:35:20.346Z,63.25
2018-04-09T09:36:20.364Z,63.09
2018-04-09T09:37:20.333Z,63.28
2018-04-09T09:38:20.357Z,63.48
2018-04-09T09:39:20.344Z,62.42
2018-04-09T09:40:20.348Z,62.61
2018-04-09T09:41:20.345Z,62.71
2018-04-09T09:42:20.323Z,62.52
2018-04-09T09:43:20.331Z,61.20
2018-04-09T09:44:20.312Z,61.46
2018-04-09T09:45:20.317Z,62.45
2018-04-09T09:46:20.306Z,63.02
2018-04-09T09:47:20.305Z,62.48
2018-04-09T09:48:20.330Z,60.34
2018-04-09T09:49:20.354Z,59.95
2018-04-09T09:50:20.309Z,60.56
2018-04-09T09:51:20.335Z,60.66
2018-04-09T09:52:20.308Z,60.17
2018-04-09T09:53:20.300Z,60.17
2018-04-09T09:54:20.283Z,58.83
2018-04-09T09:55:20.302Z,58.73
2018-04-09T09:56:20.293Z,58.83
2018-04-09T09:57:20.352Z,58.92
2018-04-09T09:58:20.274Z,58.89
2018-04-09T09:59:20.258Z,59.57
2018-04-09T10:00:20.264Z,59.76
2018-04-09T10:01:20.289Z,59.89
2018-04-09T10:02:20.305Z,60.56
2018-04-09T10:03:20.612Z,59.99
2018-04-09T10:04:20.247Z,58.64
2018-04-09T10:05:21.041Z,58.92
2018-04-09T10:06:20.941Z,58.92
2018-04-09T10:07:20.945Z,58.54
2018-04-09T10:08:20.980Z,58.99
2018-04-09T10:09:20.977Z,59.57
2018-04-09T10:10:20.797Z,60.05
2018-04-09T10:11:20.941Z,60.05
2018-04-09T10:12:20.972Z,60.08
2018-04-09T10:13:20.956Z,59.89
2018-04-09T10:14:20.955Z,60.66
2018-04-09T10:15:20.979Z,60.49
2018-04-09T10:16:20.831Z,59.92
2018-04-09T10:17:21.543Z,57.80
2018-04-09T10:18:20.952Z,57.80
2018-04-09T10:19:21.023Z,57.70
2018-04-09T10:20:20.999Z,58.95
2018-04-09T10:21:20.956Z,59.82
2018-04-09T10:22:20.324Z,58.47
2018-04-09T10:23:20.436Z,58.28
2018-04-09T10:24:20.311Z,57.80
2018-04-09T10:25:20.223Z,57.80
2018-04-09T10:26:20.208Z,58.57
2018-04-09T10:27:20.245Z,59.63
2018-04-09T10:28:20.235Z,59.53
2018-04-09T10:29:20.211Z,58.83
2018-04-09T10:30:20.226Z,59.82
2018-04-09T10:31:20.205Z,59.82
2018-04-09T10:32:20.255Z,59.63
2018-04-09T10:33:20.193Z,58.92
2018-04-09T10:34:20.221Z,59.82
2018-04-09T10:35:20.229Z,60.49
2018-04-09T10:36:20.215Z,59.05
2018-04-09T10:37:20.204Z,58.28
2018-04-09T10:38:20.204Z,58.47
2018-04-09T10:39:20.180Z,58.67
2018-04-09T10:40:20.210Z,58.95
2018-04-09T10:41:23.746Z,59.05
2018-04-09T10:42:20.199Z,57.60
2018-04-09T10:43:20.209Z,57.42
2018-04-09T10:44:20.192Z,57.13
2018-04-09T10:45:20.184Z,57.70
2018-04-09T10:46:20.165Z,57.22
2018-04-09T10:47:20.176Z,57.60
2018-04-09T10:48:20.186Z,58.09
2018-04-09T10:49:20.236Z,57.42
2018-04-09T10:50:20.172Z,57.45
2018-04-09T10:51:20.173Z,58.02
2018-04-09T10:52:20.172Z,57.06
2018-04-09T10:53:20.154Z,56.87
2018-04-09T10:54:20.165Z,57.45
2018-04-09T10:55:20.211Z,57.73
2018-04-09T10:56:20.307Z,56.77
2018-04-09T10:57:20.155Z,56.67
2018-04-09T10:58:20.167Z,56.77
2018-04-09T10:59:20.162Z,56.96
2018-04-09T11:00:20.147Z,58.02
2018-04-09T11:01:20.153Z,57.86
2018-04-09T11:02:20.161Z,58.15
2018-04-09T11:03:20.147Z,56.05
2018-04-09T11:04:20.163Z,55.77
2018-04-09T11:05:20.131Z,55.09
2018-04-09T11:06:20.172Z,53.45
2018-04-09T11:07:20.149Z,54.32
2018-04-09T11:08:20.145Z,54.10
2018-04-09T11:09:20.145Z,54.78
2018-04-09T11:10:20.180Z,55.16
2018-04-09T11:11:20.150Z,54.97
2018-04-09T11:12:20.116Z,55.26
2018-04-09T11:13:20.118Z,54.39
2018-04-09T11:14:20.140Z,55.35
2018-04-09T11:15:20.141Z,54.97
2018-04-09T11:16:20.142Z,55.65
2018-04-09T11:17:20.158Z,56.12
2018-04-09T11:18:20.130Z,55.71
2018-04-09T11:19:20.120Z,55.04
2018-04-09T11:20:20.123Z,55.90
2018-04-09T11:21:20.287Z,56.00
2018-04-09T11:22:20.126Z,55.83
2018-04-09T11:23:20.127Z,54.97
2018-04-09T11:24:20.092Z,55.16
2018-04-09T11:25:20.117Z,54.78
2018-04-09T11:26:20.121Z,55.29
2018-04-09T11:27:20.142Z,55.77
2018-04-09T11:28:20.115Z,55.09
2018-04-09T11:29:20.115Z,53.94
2018-04-09T11:30:20.095Z,53.62
2018-04-09T11:31:20.105Z,54.58
2018-04-09T11:32:20.122Z,54.58
2018-04-09T11:33:20.082Z,54.87
2018-04-09T11:34:20.090Z,54.87
2018-04-09T11:35:20.076Z,54.49
2018-04-09T11:36:20.130Z,55.07
2018-04-09T11:37:20.097Z,55.87
2018-04-09T11:38:20.096Z,54.61
2018-04-09T11:39:20.082Z,54.22
2018-04-09T11:40:20.078Z,54.71
2018-04-09T11:41:20.113Z,55.19
2018-04-09T11:42:20.088Z,56.09
2018-04-09T11:43:20.065Z,54.93
2018-04-09T11:44:20.080Z,53.48
2018-04-09T11:45:20.090Z,52.81
2018-04-09T11:46:20.136Z,53.00
2018-04-09T11:47:20.075Z,52.91
2018-04-09T11:48:20.081Z,53.00
2018-04-09T11:49:20.082Z,53.17
2018-04-09T11:50:20.088Z,53.74
2018-04-09T11:51:20.053Z,53.96
2018-04-09T11:52:20.114Z,54.83
2018-04-09T11:53:20.056Z,54.16
2018-04-09T11:54:20.051Z,53.89
2018-04-09T11:55:20.071Z,54.09
2018-04-09T11:56:20.063Z,53.92
2018-04-09T11:57:20.077Z,52.09
2018-04-09T11:58:20.068Z,52.67
2018-04-09T11:59:20.063Z,51.61
2018-04-09T12:00:20.068Z,51.32
2018-04-09T12:01:20.068Z,51.89
2018-04-09T12:02:20.053Z,51.51
2018-04-09T12:03:20.051Z,50.04
2018-04-09T12:04:20.104Z,50.52
2018-04-09T12:05:20.074Z,51.68
2018-04-09T12:06:20.052Z,52.13
2018-04-09T12:07:20.055Z,52.71
2018-04-09T12:08:20.037Z,52.81
2018-04-09T12:09:20.070Z,52.42
2018-04-09T12:10:20.124Z,52.71
2018-04-09T12:11:20.035Z,52.23
2018-04-09T12:12:20.054Z,52.52
2018-04-09T12:13:20.031Z,53.48
2018-04-09T12:14:20.034Z,52.64
2018-04-09T12:15:20.110Z,52.52
2018-04-09T12:16:20.054Z,52.61
2018-04-09T12:17:20.042Z,52.49
2018-04-09T12:18:20.042Z,52.71
2018-04-09T12:19:20.034Z,52.61
2018-04-09T12:20:20.025Z,53.27
2018-04-09T12:21:20.073Z,53.45
2018-04-09T12:22:20.032Z,54.13
2018-04-09T12:23:20.043Z,53.27
2018-04-09T12:24:20.024Z,53.45
2018-04-09T12:25:20.035Z,53.91
2018-04-09T12:26:20.089Z,54.00
2018-04-09T12:27:20.014Z,54.58
2018-04-09T12:28:20.031Z,55.45
2018-04-09T12:29:20.030Z,55.07
2018-04-09T12:30:20.021Z,55.45
2018-04-09T12:31:20.014Z,55.07
2018-04-09T12:32:20.029Z,54.80
2018-04-09T12:33:20.028Z,54.42
2018-04-09T12:34:19.993Z,54.10
2018-04-09T12:35:20.003Z,54.00
2018-04-09T12:36:20.008Z,55.16
2018-04-09T12:37:20.308Z,54.78
2018-04-09T12:38:20.015Z,55.07
2018-04-09T12:39:19.983Z,55.65
2018-04-09T12:40:19.997Z,55.74
2018-04-09T12:41:19.991Z,55.67
2018-04-09T12:42:19.969Z,55.19
2018-04-09T12:43:20.035Z,54.42
2018-04-09T12:44:19.969Z,55.29
2018-04-09T12:45:19.965Z,54.80
2018-04-09T12:46:19.969Z,54.61
2018-04-09T12:47:19.984Z,54.32
2018-04-09T12:48:19.983Z,54.10
2018-04-09T12:49:20.017Z,54.78
2018-04-09T12:50:19.966Z,55.07
2018-04-09T12:51:19.954Z,55.26
2018-04-09T12:52:19.963Z,55.07